Time;durP1;ratioP1;P1;durP2;ratioP2;P2;SDS_P1;SDS_P2;PMS_P1;PMS_P2;Temp;Humidity;BMP_temperature;BMP_pressure;BME280_temperature;BME280_humidity;BME280_pressure;Samples;Min_cycle;Max_cycle;Signal;HPM_P1;HPM_P2
2021/05/02 00:00:54;;;;;;;22.15;14.05;;;8.70;72.70;;;;;;5046031;28;20177;-87
2021/05/02 00:03:19;;;;;;;27.27;15.55;;;8.60;72.70;;;;;;5041697;28;20217;-86
2021/05/02 00:05:45;;;;;;;33.57;15.43;;;8.80;72.80;;;;;;5041578;28;20569;-86
2021/05/02 00:08:11;;;;;;;26.33;14.47;;;8.80;72.50;;;;;;5045011;28;20189;-86
2021/05/02 00:10:37;;;;;;;26.57;14.07;;;8.90;72.50;;;;;;5044969;28;20193;-86
2021/05/02 00:13:04;;;;;;;25.77;16.20;;;8.80;72.50;;;;;;5047500;28;20432;-86
2021/05/02 00:15:31;;;;;;;26.92;16.83;;;8.70;72.70;;;;;;5045946;28;20420;-86
2021/05/02 00:17:57;;;;;;;23.23;16.42;;;8.70;72.80;;;;;;5046802;28;20182;-86
2021/05/02 00:20:24;;;;;;;22.02;15.02;;;8.60;73.00;;;;;;5045665;28;20273;-86
2021/05/02 00:22:53;;;;;;;31.60;17.15;;;8.60;73.20;;;;;;5045911;28;20240;-86
2021/05/02 00:25:22;;;;;;;27.40;15.55;;;8.50;73.70;;;;;;5041997;28;20201;-84
2021/05/02 00:27:48;;;;;;;27.75;15.95;;;8.50;73.90;;;;;;5055319;28;20176;-85
2021/05/02 00:30:17;;;;;;;26.00;15.05;;;8.50;74.10;;;;;;5044958;28;20197;-86
2021/05/02 00:32:48;;;;;;;23.92;13.80;;;8.60;73.80;;;;;;5035458;28;20205;-85
2021/05/02 00:35:18;;;;;;;28.08;15.57;;;8.70;73.70;;;;;;5035705;28;20181;-86
2021/05/02 00:37:44;;;;;;;29.02;14.48;;;8.60;73.50;;;;;;5035858;28;20205;-85
2021/05/02 00:40:16;;;;;;;27.63;15.25;;;8.50;73.80;;;;;;5040641;28;20193;-84
2021/05/02 00:42:51;;;;;;;25.55;14.20;;;8.50;74.00;;;;;;5042268;28;20212;-84
2021/05/02 00:45:25;;;;;;;23.25;15.20;;;8.40;74.10;;;;;;5042093;28;20281;-84
2021/05/02 00:48:01;;;;;;;22.10;14.23;;;8.50;74.20;;;;;;5038039;28;20177;-86
2021/05/02 00:50:34;;;;;;;27.60;15.18;;;8.40;74.30;;;;;;5038269;28;20605;-86
2021/05/02 00:53:03;;;;;;;20.92;13.85;;;8.40;74.40;;;;;;5036655;28;20731;-85
2021/05/02 00:55:34;;;;;;;30.23;14.90;;;8.60;74.30;;;;;;5036038;28;20178;-86
2021/05/02 00:58:10;;;;;;;25.17;14.68;;;8.60;73.90;;;;;;5036358;28;20227;-86
2021/05/02 01:00:39;;;;;;;25.92;14.75;;;8.50;74.00;;;;;;5029649;28;20178;-86
2021/05/02 01:03:07;;;;;;;25.30;15.13;;;8.50;74.20;;;;;;5036585;28;20304;-86
2021/05/02 01:05:34;;;;;;;25.98;15.07;;;8.80;74.00;;;;;;5042479;28;20209;-84
2021/05/02 01:08:02;;;;;;;39.17;14.95;;;8.70;73.60;;;;;;5039538;28;20184;-85
2021/05/02 01:10:29;;;;;;;29.05;18.38;;;8.80;73.70;;;;;;5036959;28;20180;-85
2021/05/02 01:12:57;;;;;;;25.08;15.27;;;8.60;73.70;;;;;;5041416;28;20590;-85
2021/05/02 01:15:28;;;;;;;29.45;16.42;;;8.80;73.80;;;;;;5045624;28;20209;-85
2021/05/02 01:18:03;;;;;;;30.73;18.35;;;8.60;73.80;;;;;;5045031;28;20182;-86
2021/05/02 01:20:33;;;;;;;33.03;16.77;;;8.70;73.80;;;;;;5046163;28;20663;-86
2021/05/02 01:23:02;;;;;;;24.17;15.80;;;8.90;73.70;;;;;;5042304;28;20316;-86
2021/05/02 01:25:29;;;;;;;28.20;17.38;;;9.00;73.30;;;;;;5042491;28;20209;-86
2021/05/02 01:27:56;;;;;;;36.00;17.70;;;8.90;73.10;;;;;;5042838;28;20178;-86
2021/05/02 01:30:23;;;;;;;29.10;17.33;;;9.10;73.00;;;;;;5039536;28;20270;-86
2021/05/02 01:32:50;;;;;;;31.67;17.92;;;8.90;73.00;;;;;;5041911;28;20243;-86
2021/05/02 01:35:16;;;;;;;38.97;18.88;;;8.90;73.20;;;;;;5040521;28;20184;-86
2021/05/02 01:37:43;;;;;;;36.40;17.83;;;8.80;73.50;;;;;;5030363;28;20182;-86
2021/05/02 01:40:09;;;;;;;34.10;19.15;;;8.70;73.70;;;;;;5030311;28;20202;-86
2021/05/02 01:42:35;;;;;;;28.48;18.33;;;8.70;73.80;;;;;;5020788;28;20206;-86
2021/05/02 01:45:01;;;;;;;34.70;18.03;;;9.00;73.80;;;;;;5020924;28;20206;-86
2021/05/02 01:47:27;;;;;;;31.03;17.03;;;9.00;73.50;;;;;;5021280;28;20449;-86
2021/05/02 01:49:55;;;;;;;33.60;20.33;;;9.10;73.40;;;;;;5021486;28;20468;-86
2021/05/02 01:52:22;;;;;;;33.10;18.77;;;9.00;73.20;;;;;;5021261;28;20209;-86
2021/05/02 01:54:48;;;;;;;34.83;18.75;;;8.90;73.10;;;;;;5021372;28;20665;-86
2021/05/02 01:57:21;;;;;;;27.98;17.98;;;8.80;73.50;;;;;;5022375;28;20186;-86
2021/05/02 01:59:48;;;;;;;32.20;19.63;;;8.90;73.80;;;;;;5052613;28;20237;-86
2021/05/02 02:02:16;;;;;;;30.60;17.25;;;9.00;73.70;;;;;;5062479;28;20220;-86
2021/05/02 02:04:45;;;;;;;29.70;17.83;;;9.00;73.50;;;;;;5060591;28;20236;-85
2021/05/02 02:07:16;;;;;;;24.63;16.63;;;9.00;73.20;;;;;;5062633;28;20245;-85
2021/05/02 02:09:42;;;;;;;28.17;17.17;;;9.00;73.20;;;;;;5071378;28;20177;-85
2021/05/02 02:12:09;;;;;;;39.53;17.17;;;8.90;73.00;;;;;;5066481;28;20216;-85
2021/05/02 02:14:39;;;;;;;30.73;18.10;;;8.90;73.20;;;;;;5059627;28;20958;-85
2021/05/02 02:17:07;;;;;;;28.13;15.95;;;8.90;73.00;;;;;;5057934;28;20193;-86
2021/05/02 02:19:33;;;;;;;22.77;15.65;;;8.70;72.90;;;;;;5057368;28;20181;-86
2021/05/02 02:22:00;;;;;;;24.15;14.73;;;8.80;72.80;;;;;;5058313;28;20247;-85
2021/05/02 02:24:58;;;;;;;27.40;17.50;;;9.00;73.00;;;;;;5058062;28;20684;-85
2021/05/02 02:27:28;;;;;;;29.20;15.82;;;8.90;72.70;;;;;;5058120;28;20169;-85
2021/05/02 02:29:58;;;;;;;28.42;16.02;;;8.70;72.50;;;;;;5048362;28;20174;-86
2021/05/02 02:32:26;;;;;;;24.15;15.75;;;8.70;72.70;;;;;;5037173;28;20232;-86
2021/05/02 02:34:55;;;;;;;28.02;16.70;;;8.50;72.80;;;;;;5036182;28;20174;-85
2021/05/02 02:37:23;;;;;;;28.02;14.73;;;8.50;73.10;;;;;;5022189;28;20201;-85
2021/05/02 02:39:57;;;;;;;24.27;16.35;;;8.40;73.30;;;;;;5038477;28;20181;-83
2021/05/02 02:42:25;;;;;;;23.88;15.57;;;8.30;73.60;;;;;;5033283;28;20194;-85
2021/05/02 02:44:59;;;;;;;25.77;15.50;;;8.40;73.70;;;;;;5026976;28;20214;-85
2021/05/02 02:47:33;;;;;;;32.72;16.13;;;8.50;73.50;;;;;;5020775;28;20236;-85
2021/05/02 02:50:01;;;;;;;25.58;16.40;;;8.40;73.50;;;;;;5020284;28;20200;-85
2021/05/02 02:52:28;;;;;;;25.48;15.38;;;8.30;73.60;;;;;;5020837;28;20248;-85
2021/05/02 02:55:04;;;;;;;26.08;13.82;;;8.20;73.70;;;;;;5019647;28;20179;-85
2021/05/02 02:57:35;;;;;;;25.75;15.23;;;8.30;74.00;;;;;;5018360;28;20198;-85
2021/05/02 03:00:03;;;;;;;24.85;15.57;;;8.20;73.90;;;;;;5040907;28;20181;-85
2021/05/02 03:02:30;;;;;;;25.08;15.30;;;8.30;73.80;;;;;;5032580;28;20221;-85
2021/05/02 03:04:58;;;;;;;22.83;15.05;;;8.20;73.80;;;;;;5035380;28;20208;-85
2021/05/02 03:07:25;;;;;;;27.27;15.82;;;8.10;73.80;;;;;;5035931;28;20182;-85
2021/05/02 03:09:51;;;;;;;25.75;14.85;;;8.00;74.30;;;;;;5038279;28;20645;-85
2021/05/02 03:12:22;;;;;;;25.80;14.95;;;8.00;74.50;;;;;;5035238;28;20206;-85
2021/05/02 03:14:50;;;;;;;26.95;14.38;;;7.80;74.60;;;;;;5036586;28;20572;-85
2021/05/02 03:17:21;;;;;;;26.15;14.57;;;7.70;74.90;;;;;;5037654;28;20217;-85
2021/05/02 03:19:52;;;;;;;24.90;14.05;;;7.90;74.80;;;;;;5038272;28;20204;-84
2021/05/02 03:22:57;;;;;;;30.23;15.25;;;7.90;74.90;;;;;;5038859;28;20245;-84
2021/05/02 03:25:27;;;;;;;26.15;13.30;;;8.00;74.60;;;;;;5016532;28;20261;-84
2021/05/02 03:28:07;;;;;;;24.35;14.05;;;7.90;74.50;;;;;;5031813;28;20209;-84
2021/05/02 03:30:33;;;;;;;22.52;13.77;;;8.00;74.50;;;;;;5038441;28;20245;-85
2021/05/02 03:33:03;;;;;;;26.02;15.35;;;7.90;74.30;;;;;;5036321;28;20722;-84
2021/05/02 03:35:34;;;;;;;25.08;14.18;;;8.00;74.20;;;;;;5035464;28;20178;-84
2021/05/02 03:38:10;;;;;;;23.80;13.68;;;8.00;74.00;;;;;;5035717;28;20177;-84
2021/05/02 03:40:37;;;;;;;25.98;13.60;;;7.90;74.00;;;;;;5034829;28;20185;-85
2021/05/02 03:43:04;;;;;;;20.10;13.93;;;8.00;73.90;;;;;;5033752;28;20734;-86
2021/05/02 03:45:30;;;;;;;28.33;15.13;;;8.00;73.70;;;;;;5035088;28;20276;-86
2021/05/02 03:47:56;;;;;;;26.77;14.20;;;7.90;73.80;;;;;;5035421;28;20717;-85
2021/05/02 03:50:22;;;;;;;27.80;13.70;;;7.90;73.80;;;;;;5035247;28;20181;-85
2021/05/02 03:52:47;;;;;;;25.13;15.67;;;7.80;74.00;;;;;;5034945;28;20196;-85
2021/05/02 03:55:13;;;;;;;23.60;13.40;;;7.70;74.20;;;;;;5036404;28;20181;-85
2021/05/02 03:57:38;;;;;;;29.40;15.57;;;7.70;74.30;;;;;;5035479;28;20197;-85
2021/05/02 04:00:05;;;;;;;25.30;13.93;;;7.80;74.40;;;;;;5032498;28;20364;-85
2021/05/02 04:02:31;;;;;;;35.20;13.07;;;7.70;74.10;;;;;;5031909;28;20214;-86
2021/05/02 04:04:56;;;;;;;22.20;12.90;;;7.60;74.30;;;;;;5032685;28;20220;-85
2021/05/02 04:07:22;;;;;;;25.43;12.67;;;7.60;74.40;;;;;;5035133;28;20182;-85
2021/05/02 04:09:49;;;;;;;26.17;13.37;;;7.60;74.50;;;;;;5034668;28;20204;-85
2021/05/02 04:12:15;;;;;;;21.42;12.13;;;7.60;74.40;;;;;;5033301;28;20440;-85
2021/05/02 04:14:41;;;;;;;23.80;12.80;;;7.60;74.30;;;;;;5035471;28;20182;-84
2021/05/02 04:17:07;;;;;;;26.93;12.17;;;7.50;74.40;;;;;;5037750;28;20416;-84
2021/05/02 04:19:42;;;;;;;16.20;13.00;;;7.60;74.40;;;;;;5034324;28;20523;-85
2021/05/02 04:22:08;;;;;;;15.38;10.95;;;7.60;74.00;;;;;;5035795;28;20201;-85
2021/05/02 04:24:35;;;;;;;29.08;12.45;;;7.50;73.90;;;;;;5035313;28;20281;-84
2021/05/02 04:27:02;;;;;;;19.75;11.05;;;7.50;74.00;;;;;;5036411;28;20181;-85
2021/05/02 04:29:30;;;;;;;15.98;11.23;;;7.60;73.90;;;;;;5036096;28;20232;-84
2021/05/02 04:31:56;;;;;;;21.15;12.70;;;7.60;73.50;;;;;;5038797;28;20677;-84
2021/05/02 04:34:22;;;;;;;23.13;11.35;;;7.60;73.30;;;;;;5040041;28;20186;-84
2021/05/02 04:36:50;;;;;;;22.80;10.23;;;7.50;73.30;;;;;;5040770;28;20206;-85
2021/05/02 04:39:16;;;;;;;19.50;10.70;;;7.60;73.20;;;;;;5052667;28;20192;-85
2021/05/02 04:41:42;;;;;;;18.15;10.45;;;7.60;72.90;;;;;;5043861;28;20189;-85
2021/05/02 04:44:08;;;;;;;18.60;9.27;;;7.60;72.40;;;;;;5034671;28;20181;-85
2021/05/02 04:46:34;;;;;;;15.03;9.07;;;7.70;72.10;;;;;;5033678;28;20515;-85
2021/05/02 04:49:01;;;;;;;18.52;10.15;;;8.00;71.70;;;;;;5033250;28;20174;-85
2021/05/02 04:51:27;;;;;;;18.25;10.13;;;8.10;71.20;;;;;;5032788;28;20206;-86
2021/05/02 04:53:53;;;;;;;20.20;10.30;;;8.10;71.00;;;;;;5034352;28;20174;-86
2021/05/02 04:56:19;;;;;;;16.45;9.20;;;8.20;70.70;;;;;;5035751;28;20189;-85
2021/05/02 04:58:45;;;;;;;15.00;9.27;;;8.20;70.50;;;;;;5042000;28;20203;-85
2021/05/02 05:01:13;;;;;;;15.00;9.80;;;8.30;70.40;;;;;;5037159;28;20178;-85
2021/05/02 05:03:40;;;;;;;12.98;10.15;;;8.30;70.20;;;;;;5036428;28;20448;-85
2021/05/02 05:06:05;;;;;;;13.80;9.20;;;8.40;70.10;;;;;;5037423;28;20244;-85
2021/05/02 05:08:31;;;;;;;17.47;10.20;;;8.40;70.10;;;;;;5037097;28;20185;-85
2021/05/02 05:10:57;;;;;;;17.73;10.07;;;8.40;69.80;;;;;;5037237;28;20632;-85
2021/05/02 05:13:25;;;;;;;17.17;10.67;;;8.40;69.70;;;;;;5037352;28;20527;-85
2021/05/02 05:15:50;;;;;;;14.25;9.10;;;8.40;69.50;;;;;;5038266;28;20188;-85
2021/05/02 05:18:16;;;;;;;15.87;9.07;;;8.40;69.50;;;;;;5037904;28;20189;-85
2021/05/02 05:20:42;;;;;;;16.47;10.67;;;8.50;69.60;;;;;;5037650;28;20190;-85
2021/05/02 05:23:08;;;;;;;17.47;11.03;;;8.50;69.30;;;;;;5037565;28;20201;-85
2021/05/02 05:25:33;;;;;;;23.30;10.30;;;8.40;69.20;;;;;;5041760;28;20197;-84
2021/05/02 05:27:59;;;;;;;15.50;10.70;;;8.40;69.20;;;;;;5043347;28;20451;-84
2021/05/02 05:30:25;;;;;;;16.93;10.00;;;8.60;69.20;;;;;;5044670;28;20634;-84
2021/05/02 05:32:51;;;;;;;12.55;8.95;;;8.90;68.80;;;;;;5044433;28;20217;-84
2021/05/02 05:35:16;;;;;;;13.57;7.87;;;9.60;67.20;;;;;;5042398;28;20656;-84
2021/05/02 05:37:42;;;;;;;14.90;8.07;;;10.40;64.40;;;;;;5023428;28;20184;-84
2021/05/02 05:40:08;;;;;;;11.63;5.40;;;11.30;60.90;;;;;;5020032;28;20688;-83
2021/05/02 05:42:34;;;;;;;12.73;6.38;;;12.10;58.40;;;;;;5015774;28;20208;-84
2021/05/02 05:45:00;;;;;;;14.30;5.87;;;13.10;55.50;;;;;;5017318;28;20269;-85
2021/05/02 05:47:26;;;;;;;7.93;5.50;;;13.70;51.80;;;;;;5018808;28;20202;-84
2021/05/02 05:49:53;;;;;;;11.73;5.23;;;14.40;49.70;;;;;;5019476;28;20573;-85
2021/05/02 05:52:19;;;;;;;6.30;5.70;;;14.50;48.00;;;;;;5034466;28;20449;-85
2021/05/02 05:54:45;;;;;;;6.07;4.45;;;15.30;47.90;;;;;;5022411;28;20181;-84
2021/05/02 05:57:11;;;;;;;6.40;5.00;;;16.60;44.00;;;;;;5017779;28;20202;-85
2021/05/02 05:59:37;;;;;;;6.97;3.93;;;17.00;41.60;;;;;;5043014;28;20285;-84
2021/05/02 06:02:02;;;;;;;5.30;3.50;;;16.90;40.70;;;;;;5043097;28;20240;-85
2021/05/02 06:04:28;;;;;;;8.90;4.20;;;17.80;38.90;;;;;;5038750;28;20464;-85
2021/05/02 06:06:54;;;;;;;5.53;3.50;;;18.90;37.70;;;;;;5040038;28;20280;-85
2021/05/02 06:09:20;;;;;;;5.03;3.90;;;17.20;37.20;;;;;;5039024;28;20641;-85
2021/05/02 06:11:47;;;;;;;4.78;3.03;;;17.00;38.80;;;;;;5038419;28;20174;-85
2021/05/02 06:14:13;;;;;;;4.45;2.70;;;18.30;37.10;;;;;;5027606;28;20553;-86
2021/05/02 06:16:39;;;;;;;6.78;2.78;;;18.40;35.40;;;;;;5018596;28;20182;-86
2021/05/02 06:19:05;;;;;;;4.90;2.93;;;18.70;34.90;;;;;;5018772;28;20193;-86
2021/05/02 06:21:31;;;;;;;6.20;2.60;;;19.50;34.40;;;;;;5020910;28;20472;-86
2021/05/02 06:23:56;;;;;;;4.83;2.47;;;19.80;32.40;;;;;;5025520;28;20186;-86
2021/05/02 06:26:22;;;;;;;7.40;2.73;;;20.60;31.20;;;;;;5028643;28;20230;-86
2021/05/02 06:28:50;;;;;;;5.90;2.00;;;18.60;32.00;;;;;;5036636;28;20350;-86
2021/05/02 06:31:19;;;;;;;6.43;2.45;;;17.70;34.30;;;;;;5037009;28;20213;-85
2021/05/02 06:33:49;;;;;;;6.50;2.08;;;17.30;35.10;;;;;;5036027;28;20201;-85
2021/05/02 06:36:15;;;;;;;4.45;2.22;;;17.00;35.90;;;;;;5048406;28;20190;-86
2021/05/02 06:38:42;;;;;;;2.63;2.40;;;18.90;34.60;;;;;;5040239;28;20225;-86
2021/05/02 06:41:07;;;;;;;5.18;2.05;;;18.40;33.00;;;;;;5043445;28;20182;-85
2021/05/02 06:43:34;;;;;;;4.93;2.20;;;17.50;34.00;;;;;;5048068;28;20202;-87
2021/05/02 06:45:59;;;;;;;3.40;2.50;;;16.80;35.80;;;;;;5043371;28;20238;-85
2021/05/02 06:48:26;;;;;;;8.80;2.60;;;16.50;36.50;;;;;;5038868;28;20184;-85
2021/05/02 06:50:52;;;;;;;9.02;2.55;;;15.80;37.60;;;;;;5036673;28;20625;-85
2021/05/02 06:53:18;;;;;;;2.90;1.90;;;16.60;37.00;;;;;;5037147;28;20251;-86
2021/05/02 06:55:44;;;;;;;5.50;1.80;;;16.70;37.00;;;;;;5035210;28;20511;-86
2021/05/02 06:58:11;;;;;;;3.97;2.20;;;17.20;36.40;;;;;;5047045;28;20205;-84
2021/05/02 07:00:37;;;;;;;2.42;2.10;;;18.30;34.10;;;;;;5063001;28;20182;-87
2021/05/02 07:03:08;;;;;;;8.65;2.20;;;19.10;31.90;;;;;;5054065;28;20232;-86
2021/05/02 07:05:35;;;;;;;9.82;2.40;;;18.60;31.80;;;;;;5048196;28;20201;-85
2021/05/02 07:08:01;;;;;;;3.10;2.53;;;18.50;31.70;;;;;;5044525;28;20597;-85
2021/05/02 07:10:27;;;;;;;5.50;3.00;;;18.90;32.10;;;;;;5041310;28;20193;-86
2021/05/02 07:12:53;;;;;;;4.88;2.42;;;19.30;31.10;;;;;;5039841;28;20236;-87
2021/05/02 07:15:19;;;;;;;18.00;2.70;;;18.70;31.30;;;;;;5036914;28;20182;-87
2021/05/02 07:17:46;;;;;;;2.83;2.50;;;17.10;33.40;;;;;;5039617;28;20193;-85
2021/05/02 07:20:14;;;;;;;2.63;2.13;;;16.20;35.30;;;;;;5039023;28;20412;-85
2021/05/02 07:22:43;;;;;;;3.45;2.28;;;16.00;36.20;;;;;;5038467;28;20198;-85
2021/05/02 07:25:09;;;;;;;4.60;2.90;;;14.90;38.70;;;;;;5035055;28;20208;-88
2021/05/02 07:27:35;;;;;;;6.07;2.80;;;14.40;40.60;;;;;;5034396;28;20169;-88
2021/05/02 07:30:00;;;;;;;5.20;2.70;;;14.10;41.50;;;;;;5026995;28;20178;-87
2021/05/02 07:32:26;;;;;;;4.90;2.90;;;13.70;43.10;;;;;;5015310;28;20916;-88
2021/05/02 07:34:52;;;;;;;2.77;2.27;;;13.20;45.40;;;;;;5015212;28;20189;-89
2021/05/02 07:37:18;;;;;;;4.30;2.90;;;13.00;46.70;;;;;;5014933;28;20178;-88
2021/05/02 07:39:44;;;;;;;6.90;3.53;;;13.30;46.70;;;;;;5014852;28;20186;-88
2021/05/02 07:42:09;;;;;;;9.27;2.80;;;12.80;46.60;;;;;;5014598;28;20445;-89
2021/05/02 07:44:35;;;;;;;6.47;3.10;;;12.40;47.20;;;;;;5015485;28;20457;-88
2021/05/02 07:47:01;;;;;;;5.70;2.57;;;12.00;48.50;;;;;;5026869;28;20665;-88
2021/05/02 07:49:26;;;;;;;5.93;2.93;;;11.80;49.70;;;;;;5033435;28;20216;-86
2021/05/02 07:51:52;;;;;;;5.20;3.73;;;11.60;50.50;;;;;;5032257;28;20190;-88
2021/05/02 07:54:18;;;;;;;3.97;2.20;;;11.80;51.00;;;;;;5033381;28;20174;-88
2021/05/02 07:56:44;;;;;;;4.70;2.63;;;12.00;50.70;;;;;;5035317;28;20750;-88
2021/05/02 07:59:09;;;;;;;4.30;2.40;;;11.90;50.40;;;;;;5041727;28;20177;-88
2021/05/02 08:01:35;;;;;;;3.60;2.50;;;11.50;50.10;;;;;;5035141;28;20195;-88
2021/05/02 08:04:01;;;;;;;4.00;2.33;;;11.60;49.50;;;;;;5034513;28;20224;-86
2021/05/02 08:06:27;;;;;;;6.65;2.55;;;11.80;48.90;;;;;;5033718;28;20982;-86
2021/05/02 08:08:53;;;;;;;6.30;2.30;;;11.80;48.60;;;;;;5039356;28;20197;-86
2021/05/02 08:11:19;;;;;;;5.20;2.53;;;11.60;49.30;;;;;;5039347;28;20177;-86
2021/05/02 08:13:44;;;;;;;7.57;2.37;;;11.80;49.70;;;;;;5040191;28;20436;-82
2021/05/02 08:16:10;;;;;;;2.27;1.70;;;11.50;50.10;;;;;;5037421;28;20170;-79
2021/05/02 08:18:36;;;;;;;2.20;2.00;;;11.20;51.00;;;;;;5032097;28;20190;-79
2021/05/02 08:21:04;;;;;;;6.20;2.47;;;11.20;51.60;;;;;;5031306;28;20189;-80
2021/05/02 08:23:29;;;;;;;4.47;2.80;;;11.10;51.90;;;;;;5031615;28;20232;-79
2021/05/02 08:25:55;;;;;;;5.90;2.90;;;11.00;51.20;;;;;;5033233;28;20205;-79
2021/05/02 08:28:21;;;;;;;3.40;2.30;;;11.40;51.00;;;;;;5035923;28;20244;-81
2021/05/02 08:30:46;;;;;;;6.00;2.30;;;11.30;50.00;;;;;;5036283;28;20594;-77
2021/05/02 08:33:12;;;;;;;3.00;2.17;;;11.20;50.50;;;;;;5035327;28;20194;-80
2021/05/02 08:35:42;;;;;;;2.33;2.17;;;11.30;50.90;;;;;;5019467;28;20270;-80
2021/05/02 08:38:08;;;;;;;3.78;2.47;;;11.30;50.50;;;;;;5017966;28;20422;-81
2021/05/02 08:40:33;;;;;;;7.63;2.70;;;11.30;49.60;;;;;;5017300;28;20233;-81
2021/05/02 08:43:09;;;;;;;4.63;2.07;;;11.50;49.70;;;;;;5030430;28;20240;-80
2021/05/02 08:45:36;;;;;;;5.85;2.10;;;11.40;50.30;;;;;;5037537;28;20458;-80
2021/05/02 08:48:04;;;;;;;2.88;1.45;;;11.40;50.20;;;;;;5037589;28;20182;-79
2021/05/02 08:50:31;;;;;;;2.38;2.00;;;11.70;49.80;;;;;;5036486;28;20588;-80
2021/05/02 08:52:58;;;;;;;5.53;2.42;;;11.90;48.80;;;;;;5037029;28;20256;-79
2021/05/02 08:55:23;;;;;;;3.78;2.53;;;11.80;48.10;;;;;;5038240;28;20181;-80
2021/05/02 08:57:49;;;;;;;3.40;1.63;;;11.80;49.20;;;;;;5036994;28;20178;-80
2021/05/02 09:00:15;;;;;;;4.87;2.20;;;11.90;47.40;;;;;;5046709;28;20424;-80
2021/05/02 09:02:53;;;;;;;2.85;1.70;;;12.10;47.20;;;;;;5037279;28;20213;-80
2021/05/02 09:05:19;;;;;;;3.88;1.77;;;12.20;46.70;;;;;;5037376;28;20208;-79
2021/05/02 09:07:48;;;;;;;5.97;2.00;;;12.20;46.50;;;;;;5037932;28;20178;-80
2021/05/02 09:10:17;;;;;;;5.30;1.80;;;12.40;46.30;;;;;;5040912;28;20260;-84
2021/05/02 09:12:56;;;;;;;3.40;1.75;;;11.90;46.90;;;;;;5041239;28;20235;-84
2021/05/02 09:15:21;;;;;;;2.28;1.60;;;11.80;47.70;;;;;;5046595;28;20177;-84
2021/05/02 09:17:51;;;;;;;6.37;2.13;;;11.30;48.60;;;;;;5048219;28;20262;-83
2021/05/02 09:20:42;;;;;;;6.00;1.90;;;11.20;48.30;;;;;;5039759;28;20170;-84
2021/05/02 09:23:09;;;;;;;1.73;1.63;;;11.00;48.90;;;;;;5038930;28;20217;-84
2021/05/02 09:25:44;;;;;;;1.92;1.75;;;11.00;49.70;;;;;;5037413;28;20225;-84
2021/05/02 09:28:10;;;;;;;3.20;2.08;;;11.10;49.50;;;;;;5040141;28;20244;-83
2021/05/02 09:30:36;;;;;;;4.03;2.17;;;11.10;49.50;;;;;;5037317;28;20194;-84
2021/05/02 09:33:02;;;;;;;2.60;1.87;;;11.20;49.10;;;;;;5038977;28;20198;-84
2021/05/02 09:35:30;;;;;;;3.60;1.90;;;11.30;48.80;;;;;;5040092;28;20433;-83
2021/05/02 09:38:14;;;;;;;2.33;1.50;;;11.30;48.60;;;;;;5037030;28;20427;-84
2021/05/02 09:40:44;;;;;;;1.88;1.75;;;11.10;48.90;;;;;;5036914;28;20178;-83
2021/05/02 09:43:37;;;;;;;4.25;2.00;;;11.00;49.10;;;;;;5037142;28;20248;-84
2021/05/02 09:46:32;;;;;;;4.00;2.00;;;10.90;49.10;;;;;;5034971;28;20688;-84
2021/05/02 09:49:10;;;;;;;6.88;2.95;;;11.00;49.00;;;;;;5036712;28;20273;-83
2021/05/02 09:51:48;;;;;;;3.13;2.20;;;11.10;48.10;;;;;;5040964;28;20188;-84
2021/05/02 09:54:21;;;;;;;2.10;1.90;;;11.20;48.20;;;;;;5038800;28;20204;-84
2021/05/02 09:56:50;;;;;;;3.50;2.05;;;11.40;47.70;;;;;;5037194;28;20208;-84
2021/05/02 09:59:34;;;;;;;2.38;2.10;;;11.60;46.80;;;;;;5044107;28;20178;-84
2021/05/02 10:02:12;;;;;;;3.85;2.55;;;11.60;46.10;;;;;;5035823;28;20233;-84
2021/05/02 10:04:46;;;;;;;3.05;2.60;;;11.70;45.40;;;;;;5036783;28;20210;-84
2021/05/02 10:07:21;;;;;;;3.67;1.63;;;11.90;44.40;;;;;;5036102;28;20162;-83
2021/05/02 10:09:47;;;;;;;2.63;1.55;;;11.90;43.50;;;;;;5039549;28;20173;-84
2021/05/02 10:12:15;;;;;;;5.25;2.20;;;11.60;43.00;;;;;;5036994;28;20198;-83
2021/05/02 10:14:43;;;;;;;2.30;1.60;;;11.70;43.00;;;;;;5037471;28;20530;-83
2021/05/02 10:17:09;;;;;;;3.15;1.88;;;11.80;42.20;;;;;;5041642;28;20182;-83
2021/05/02 10:19:35;;;;;;;4.53;2.10;;;12.00;42.30;;;;;;5050989;28;20504;-84
2021/05/02 10:22:02;;;;;;;1.92;1.77;;;12.10;42.90;;;;;;5053404;28;20194;-84
2021/05/02 10:24:28;;;;;;;1.95;1.45;;;12.10;43.30;;;;;;5051716;28;20201;-84
2021/05/02 10:26:54;;;;;;;6.10;2.63;;;11.90;43.70;;;;;;5047459;28;20170;-83
2021/05/02 10:29:29;;;;;;;2.95;1.95;;;11.80;43.90;;;;;;5039002;28;20243;-85
2021/05/02 10:32:00;;;;;;;1.83;1.60;;;11.70;44.20;;;;;;5038068;28;20208;-85
2021/05/02 10:34:27;;;;;;;3.95;1.98;;;11.70;44.40;;;;;;5040923;28;20174;-82
2021/05/02 10:37:25;;;;;;;3.00;1.85;;;11.50;45.00;;;;;;5038205;28;20174;-84
2021/05/02 10:40:06;;;;;;;4.53;2.13;;;11.60;45.30;;;;;;5025418;28;20254;-84
2021/05/02 10:42:44;;;;;;;1.50;1.40;;;11.60;44.30;;;;;;5022029;28;20198;-84
2021/05/02 10:45:54;;;;;;;5.28;1.95;;;11.50;43.50;;;;;;5026537;28;20198;-84
2021/05/02 10:48:21;;;;;;;3.85;3.15;;;11.90;43.40;;;;;;5031787;28;20189;-84
2021/05/02 10:50:51;;;;;;;2.45;2.05;;;12.00;43.00;;;;;;5023461;28;20206;-84
2021/05/02 10:53:19;;;;;;;4.97;2.33;;;12.30;44.20;;;;;;5024955;28;20274;-84
2021/05/02 10:55:56;;;;;;;3.35;2.00;;;12.50;42.20;;;;;;5037039;28;20242;-83
2021/05/02 10:58:29;;;;;;;3.95;1.90;;;12.10;41.60;;;;;;5037587;28;20213;-83
2021/05/02 11:01:02;;;;;;;2.60;2.25;;;12.00;42.60;;;;;;5038750;28;20185;-87
2021/05/02 11:06:10;;;;;;;5.00;2.38;;;12.30;42.50;;;;;;5038135;28;20201;-83
2021/05/02 11:08:49;;;;;;;5.63;2.45;;;12.20;42.20;;;;;;5037310;28;20178;-83
2021/05/02 11:11:35;;;;;;;4.85;1.92;;;12.10;42.70;;;;;;5035717;28;20207;-83
2021/05/02 11:14:20;;;;;;;5.35;2.00;;;12.10;42.60;;;;;;5023088;28;20174;-84
2021/05/02 11:16:48;;;;;;;5.40;2.22;;;12.40;42.00;;;;;;5037007;28;20269;-83
2021/05/02 11:19:19;;;;;;;2.97;1.88;;;12.20;41.60;;;;;;5037074;28;20245;-83
2021/05/02 11:21:51;;;;;;;5.72;1.83;;;12.10;41.50;;;;;;5036449;28;20185;-83
2021/05/02 11:24:25;;;;;;;5.05;2.08;;;11.90;42.20;;;;;;5037189;28;20240;-83
2021/05/02 11:27:05;;;;;;;3.38;2.20;;;11.90;42.60;;;;;;5037083;28;20220;-83
2021/05/02 11:30:06;;;;;;;4.35;2.28;;;12.10;43.00;;;;;;5022912;28;20607;-83
2021/05/02 11:32:38;;;;;;;6.10;2.35;;;12.10;43.30;;;;;;5032981;28;20198;-84
2021/05/02 11:35:16;;;;;;;4.32;1.90;;;12.20;43.80;;;;;;5034276;28;20269;-83
2021/05/02 11:38:03;;;;;;;6.20;2.00;;;12.20;41.50;;;;;;5017116;28;20613;-83
2021/05/02 11:40:32;;;;;;;3.05;1.70;;;12.30;41.10;;;;;;5013554;28;20174;-84
2021/05/02 11:43:11;;;;;;;5.28;1.85;;;12.40;40.70;;;;;;5014241;28;20217;-83
2021/05/02 11:45:54;;;;;;;2.33;2.08;;;12.60;39.60;;;;;;5030758;28;20635;-83
2021/05/02 11:48:35;;;;;;;2.10;1.75;;;12.60;40.10;;;;;;5033737;28;20173;-83
2021/05/02 11:51:05;;;;;;;3.92;2.20;;;12.60;41.20;;;;;;5033976;28;20166;-84
2021/05/02 11:53:42;;;;;;;2.80;1.67;;;12.80;41.60;;;;;;5034453;28;20201;-83
2021/05/02 11:56:13;;;;;;;3.90;2.00;;;12.80;40.70;;;;;;5035524;28;20215;-84
2021/05/02 11:58:39;;;;;;;8.88;2.22;;;12.50;39.80;;;;;;5040910;28;20180;-84
2021/05/02 12:01:13;;;;;;;3.70;1.97;;;12.40;41.40;;;;;;5055586;28;20208;-83
2021/05/02 12:03:39;;;;;;;6.13;2.35;;;12.50;41.90;;;;;;5057516;28;20455;-84
2021/05/02 12:06:07;;;;;;;2.53;2.33;;;12.60;41.10;;;;;;5064862;28;20276;-83
2021/05/02 12:08:32;;;;;;;1.98;1.83;;;13.00;40.50;;;;;;5067774;28;20184;-83
2021/05/02 12:11:05;;;;;;;2.50;2.17;;;13.10;40.30;;;;;;5066852;28;20177;-83
2021/05/02 12:13:36;;;;;;;13.52;3.10;;;13.10;40.10;;;;;;5058410;28;20193;-84
2021/05/02 12:16:19;;;;;;;2.67;2.47;;;13.30;40.30;;;;;;5056472;28;20181;-83
2021/05/02 12:18:57;;;;;;;2.60;2.40;;;13.30;40.30;;;;;;5047865;28;20227;-84
2021/05/02 12:21:35;;;;;;;3.25;2.55;;;13.50;39.90;;;;;;5035756;28;20203;-83
2021/05/02 12:24:36;;;;;;;3.92;2.60;;;13.10;40.30;;;;;;5035651;28;20247;-84
2021/05/02 12:27:07;;;;;;;2.88;2.58;;;13.10;41.30;;;;;;5035522;28;20237;-83
2021/05/02 12:29:37;;;;;;;2.55;2.35;;;12.90;42.30;;;;;;5036027;28;20177;-83
2021/05/02 12:32:07;;;;;;;3.65;2.42;;;12.60;43.20;;;;;;5040367;28;20198;-84
2021/05/02 12:34:37;;;;;;;3.38;2.22;;;12.50;44.20;;;;;;5038732;28;20182;-83
2021/05/02 12:37:18;;;;;;;4.00;2.25;;;12.40;44.60;;;;;;5024219;28;20183;-83
2021/05/02 12:39:46;;;;;;;2.85;2.22;;;12.50;44.70;;;;;;5030295;28;20182;-84
2021/05/02 12:42:13;;;;;;;2.47;2.13;;;12.60;44.60;;;;;;5030082;28;20206;-83
2021/05/02 12:44:40;;;;;;;3.00;2.22;;;12.90;44.10;;;;;;5031278;28;20210;-83
2021/05/02 12:47:17;;;;;;;4.15;2.50;;;12.60;45.50;;;;;;5032466;28;20171;-83
2021/05/02 12:50:04;;;;;;;7.50;2.72;;;12.40;48.20;;;;;;5030871;28;20183;-83
2021/05/02 12:52:36;;;;;;;4.32;3.90;;;11.90;51.90;;;;;;5030973;28;20202;-83
2021/05/02 12:55:29;;;;;;;7.05;3.35;;;11.70;54.60;;;;;;5032157;28;20189;-83
2021/05/02 12:57:57;;;;;;;6.10;3.28;;;11.60;54.80;;;;;;5031431;28;20174;-84